Time;durP1;ratioP1;P1;durP2;ratioP2;P2;SDS_P1;SDS_P2;PMS_P1;PMS_P2;Temp;Humidity;BMP_temperature;BMP_pressure;BME280_temperature;BME280_humidity;BME280_pressure;Samples;Min_cycle;Max_cycle;Signal;HPM_P1;HPM_P2
2021/08/22 00:01:25;;;;;;;4.22;2.85;;;22.30;99.90;;;;;;4974148;28;20029;-81
2021/08/22 00:03:51;;;;;;;5.28;2.80;;;22.30;99.90;;;;;;4974347;28;20035;-81
2021/08/22 00:06:17;;;;;;;3.72;2.38;;;22.30;99.90;;;;;;4973964;28;20483;-81
2021/08/22 00:08:43;;;;;;;4.57;3.17;;;22.30;99.90;;;;;;4974051;28;20042;-82
2021/08/22 00:11:09;;;;;;;4.40;2.92;;;22.20;99.90;;;;;;4974394;28;20026;-82
2021/08/22 00:13:35;;;;;;;4.32;2.70;;;22.20;99.90;;;;;;4974625;28;20085;-82
2021/08/22 00:16:01;;;;;;;5.30;2.90;;;22.20;99.90;;;;;;4974165;28;20522;-82
2021/08/22 00:18:27;;;;;;;5.25;2.75;;;22.20;99.90;;;;;;4974248;28;20101;-82
2021/08/22 00:20:53;;;;;;;4.13;2.78;;;22.20;99.90;;;;;;4974104;28;20023;-82
2021/08/22 00:23:19;;;;;;;4.05;2.80;;;22.20;99.90;;;;;;4973713;28;20089;-81
2021/08/22 00:25:44;;;;;;;4.95;3.00;;;22.20;99.90;;;;;;4973872;28;20468;-81
2021/08/22 00:28:10;;;;;;;6.63;2.92;;;22.20;99.90;;;;;;4972534;28;20374;-81
2021/08/22 00:30:37;;;;;;;4.13;2.72;;;22.20;99.90;;;;;;4974254;28;20035;-82
2021/08/22 00:33:02;;;;;;;3.75;2.55;;;22.20;99.90;;;;;;4973718;28;20031;-82
2021/08/22 00:35:28;;;;;;;3.55;2.55;;;22.20;99.90;;;;;;4973397;28;20514;-81
2021/08/22 00:37:54;;;;;;;4.22;2.78;;;22.20;99.90;;;;;;4956263;28;20063;-81
2021/08/22 00:40:20;;;;;;;4.22;2.92;;;22.20;99.90;;;;;;4973611;28;20099;-82
2021/08/22 00:42:48;;;;;;;3.80;2.50;;;22.20;99.90;;;;;;4973351;28;20459;-81
2021/08/22 00:45:14;;;;;;;3.40;2.47;;;22.20;99.90;;;;;;4973318;28;20117;-81
2021/08/22 00:47:41;;;;;;;4.63;2.30;;;22.20;99.90;;;;;;4972159;28;20106;-81
2021/08/22 00:50:07;;;;;;;3.55;2.80;;;22.20;99.90;;;;;;4973537;28;20030;-81
2021/08/22 00:52:34;;;;;;;6.47;2.90;;;22.20;99.90;;;;;;4973043;28;20524;-82
2021/08/22 00:55:05;;;;;;;4.75;2.80;;;22.20;99.90;;;;;;4955995;28;20050;-81
2021/08/22 00:57:32;;;;;;;4.60;2.50;;;22.20;99.90;;;;;;4972612;28;20042;-82
2021/08/22 01:00:07;;;;;;;3.90;2.80;;;22.20;99.90;;;;;;4973212;28;20089;-82
2021/08/22 01:02:35;;;;;;;5.10;2.75;;;22.10;99.90;;;;;;4955545;28;20027;-81
2021/08/22 01:05:10;;;;;;;4.43;2.75;;;22.20;99.90;;;;;;4972940;28;20113;-81
2021/08/22 01:07:47;;;;;;;3.75;2.83;;;22.20;99.90;;;;;;4973378;28;20031;-81
2021/08/22 01:10:16;;;;;;;5.93;3.08;;;22.20;99.90;;;;;;4955369;28;20042;-81
2021/08/22 01:12:52;;;;;;;3.88;2.70;;;22.20;99.90;;;;;;4972965;28;20495;-82
2021/08/22 01:15:19;;;;;;;4.10;3.03;;;22.10;99.90;;;;;;4955346;28;20034;-81
2021/08/22 01:17:50;;;;;;;4.00;3.13;;;22.20;99.90;;;;;;4973032;28;20084;-81
2021/08/22 01:20:22;;;;;;;4.10;3.03;;;22.20;99.90;;;;;;4972668;28;20050;-82
2021/08/22 01:22:50;;;;;;;4.45;3.17;;;22.20;99.90;;;;;;4972949;28;20110;-81
2021/08/22 01:25:16;;;;;;;5.35;3.35;;;22.20;99.90;;;;;;4972628;28;20502;-81
2021/08/22 01:27:42;;;;;;;3.90;2.75;;;22.20;99.90;;;;;;4972672;28;20035;-82
2021/08/22 01:30:12;;;;;;;3.65;2.70;;;22.10;99.90;;;;;;4955583;28;20027;-82
2021/08/22 01:32:46;;;;;;;5.30;3.28;;;22.10;99.90;;;;;;4955800;28;20033;-82
2021/08/22 01:35:16;;;;;;;4.47;2.67;;;22.10;99.90;;;;;;4954996;28;20031;-81
2021/08/22 01:37:43;;;;;;;4.53;2.63;;;22.10;99.90;;;;;;4972625;28;20022;-81
2021/08/22 01:40:11;;;;;;;4.93;3.53;;;22.10;99.90;;;;;;4972748;28;20042;-81
2021/08/22 01:42:39;;;;;;;5.05;2.88;;;22.10;99.90;;;;;;4955293;28;20026;-82
2021/08/22 01:45:07;;;;;;;3.90;2.90;;;22.10;99.90;;;;;;4972871;28;20027;-82
2021/08/22 01:47:38;;;;;;;3.85;2.70;;;22.10;99.90;;;;;;4972130;28;20051;-82
2021/08/22 01:50:05;;;;;;;4.60;3.20;;;22.10;99.90;;;;;;4972558;28;20395;-82
2021/08/22 01:52:35;;;;;;;3.80;2.95;;;22.10;99.90;;;;;;4972245;28;20026;-82
2021/08/22 01:55:05;;;;;;;4.68;2.75;;;22.10;99.90;;;;;;4972432;28;20118;-82
2021/08/22 01:57:32;;;;;;;3.90;3.10;;;22.10;99.90;;;;;;4972193;28;20030;-82
2021/08/22 01:59:58;;;;;;;4.45;3.00;;;22.10;99.90;;;;;;4955099;28;20015;-82
2021/08/22 02:02:24;;;;;;;5.30;2.88;;;22.10;99.90;;;;;;4972177;28;20031;-82
2021/08/22 02:04:58;;;;;;;4.07;2.90;;;22.10;99.90;;;;;;4972448;28;20033;-82
2021/08/22 02:07:28;;;;;;;5.40;3.15;;;22.10;99.90;;;;;;4972029;28;20038;-82
2021/08/22 02:10:09;;;;;;;4.40;3.00;;;22.10;99.90;;;;;;4954837;28;20066;-82
2021/08/22 02:12:36;;;;;;;6.45;2.97;;;22.10;99.90;;;;;;4972739;28;20022;-82
2021/08/22 02:15:16;;;;;;;4.53;3.00;;;22.10;99.90;;;;;;4972297;28;20035;-82
2021/08/22 02:17:50;;;;;;;6.05;3.42;;;22.10;99.90;;;;;;4972199;28;20038;-82
2021/08/22 02:20:17;;;;;;;5.70;3.13;;;22.10;99.90;;;;;;4972046;28;20033;-82
2021/08/22 02:22:46;;;;;;;5.32;3.38;;;22.00;99.90;;;;;;4954806;28;20419;-82
2021/08/22 02:25:12;;;;;;;4.95;3.10;;;22.00;99.90;;;;;;4971948;28;20034;-82
2021/08/22 02:27:38;;;;;;;5.75;2.75;;;22.10;99.90;;;;;;4972314;28;20069;-82
2021/08/22 02:30:05;;;;;;;6.55;3.35;;;22.00;99.90;;;;;;4970853;28;20027;-82
2021/08/22 02:32:30;;;;;;;5.10;3.30;;;22.00;99.90;;;;;;4971850;28;20030;-82
2021/08/22 02:34:56;;;;;;;4.35;2.67;;;22.00;99.90;;;;;;4970839;28;20391;-82
2021/08/22 02:37:22;;;;;;;4.13;2.88;;;22.00;99.90;;;;;;4971857;28;20041;-82
2021/08/22 02:39:48;;;;;;;4.75;2.67;;;22.00;99.90;;;;;;4972091;28;20099;-83
2021/08/22 02:42:16;;;;;;;4.07;2.60;;;22.00;99.90;;;;;;4971679;28;20094;-82
2021/08/22 02:44:43;;;;;;;5.38;3.65;;;22.00;99.90;;;;;;4971970;28;20025;-82
2021/08/22 02:47:09;;;;;;;4.40;2.83;;;22.00;99.90;;;;;;4972090;28;20027;-82
2021/08/22 02:49:35;;;;;;;3.92;2.55;;;22.00;99.90;;;;;;4972242;28;20070;-82
2021/08/22 02:52:00;;;;;;;4.32;2.55;;;22.00;99.90;;;;;;4974144;28;20295;-83
2021/08/22 02:54:26;;;;;;;3.63;2.97;;;22.00;99.90;;;;;;4975384;28;20081;-82
2021/08/22 02:56:52;;;;;;;3.95;2.75;;;21.90;99.90;;;;;;4975363;28;20030;-82
2021/08/22 02:59:17;;;;;;;3.55;2.42;;;22.00;99.90;;;;;;4974170;28;20034;-81
2021/08/22 03:01:43;;;;;;;4.82;2.45;;;21.90;99.90;;;;;;4975401;28;20054;-82
2021/08/22 03:04:09;;;;;;;6.40;2.70;;;21.90;99.90;;;;;;4974395;28;20492;-81
2021/08/22 03:06:34;;;;;;;3.55;2.22;;;21.90;99.90;;;;;;4974225;28;20372;-81
2021/08/22 03:09:02;;;;;;;3.78;2.33;;;21.90;99.90;;;;;;4975121;28;20050;-82
2021/08/22 03:11:28;;;;;;;4.35;2.17;;;21.90;99.90;;;;;;4975241;28;20078;-82
2021/08/22 03:13:53;;;;;;;4.35;2.60;;;21.90;99.90;;;;;;4975285;28;20031;-82
2021/08/22 03:16:19;;;;;;;4.97;2.83;;;21.90;99.90;;;;;;4974860;28;20030;-81
2021/08/22 03:18:45;;;;;;;3.08;2.08;;;21.90;99.90;;;;;;4973903;28;20035;-81
2021/08/22 03:21:10;;;;;;;5.82;2.58;;;21.90;99.90;;;;;;4973710;28;20046;-81
2021/08/22 03:23:36;;;;;;;4.30;2.00;;;21.90;99.90;;;;;;4975428;28;20073;-82
2021/08/22 03:26:02;;;;;;;4.05;2.42;;;21.90;99.90;;;;;;4974201;28;20027;-82
2021/08/22 03:28:28;;;;;;;3.60;2.30;;;21.90;99.90;;;;;;4974626;28;20063;-82
2021/08/22 03:30:54;;;;;;;3.53;2.33;;;21.90;99.90;;;;;;4975007;28;20027;-82
2021/08/22 03:33:20;;;;;;;4.72;2.00;;;21.90;99.90;;;;;;4974920;28;20085;-82
2021/08/22 03:35:47;;;;;;;3.58;2.10;;;21.90;99.90;;;;;;4957538;28;20031;-82
2021/08/22 03:38:12;;;;;;;3.58;2.30;;;21.90;99.90;;;;;;4974792;28;20128;-82
2021/08/22 03:40:38;;;;;;;3.75;2.47;;;21.90;99.90;;;;;;4957399;28;20490;-82
2021/08/22 03:43:04;;;;;;;3.72;2.17;;;21.90;99.90;;;;;;4974672;28;20034;-82
2021/08/22 03:45:30;;;;;;;3.75;2.33;;;21.80;99.90;;;;;;4974347;28;20518;-82
2021/08/22 03:47:55;;;;;;;3.60;2.22;;;21.80;99.90;;;;;;4974558;28;20395;-82
2021/08/22 03:50:21;;;;;;;4.68;1.98;;;21.80;99.90;;;;;;4974340;28;20039;-82
2021/08/22 03:52:48;;;;;;;4.38;2.05;;;21.80;99.90;;;;;;4957141;28;20027;-82
2021/08/22 03:55:14;;;;;;;3.50;2.13;;;21.80;99.90;;;;;;4957179;28;20483;-82
2021/08/22 03:57:40;;;;;;;2.67;1.92;;;21.80;99.90;;;;;;4974421;28;20026;-82
2021/08/22 04:00:06;;;;;;;4.47;2.13;;;21.80;99.90;;;;;;4974875;28;20101;-81
2021/08/22 04:02:32;;;;;;;4.00;2.47;;;21.80;99.90;;;;;;4974082;28;20019;-81
2021/08/22 04:05:00;;;;;;;3.95;2.30;;;21.80;99.90;;;;;;4956937;28;20042;-82
2021/08/22 04:07:28;;;;;;;2.92;1.85;;;21.80;99.90;;;;;;4974051;28;20022;-81
2021/08/22 04:09:54;;;;;;;4.57;2.88;;;21.70;99.90;;;;;;4956939;28;20406;-82
2021/08/22 04:12:20;;;;;;;5.20;2.25;;;21.80;99.90;;;;;;4972903;28;20023;-82
2021/08/22 04:14:45;;;;;;;2.80;1.92;;;21.80;99.90;;;;;;4973062;28;20070;-81
2021/08/22 04:17:11;;;;;;;3.28;2.00;;;21.80;99.90;;;;;;4974027;28;20030;-81
2021/08/22 04:19:36;;;;;;;3.53;2.10;;;21.80;99.90;;;;;;4974153;28;20034;-81
2021/08/22 04:22:02;;;;;;;4.13;2.30;;;21.80;99.90;;;;;;4974052;28;20085;-81
2021/08/22 04:24:29;;;;;;;3.63;2.30;;;21.70;99.90;;;;;;4973913;28;20019;-81
2021/08/22 04:26:55;;;;;;;4.05;1.95;;;21.70;99.90;;;;;;4973896;28;20070;-81
2021/08/22 04:29:21;;;;;;;6.57;2.25;;;21.70;99.90;;;;;;4973661;28;20530;-81
2021/08/22 04:31:46;;;;;;;3.70;1.88;;;21.70;99.90;;;;;;4973799;28;20023;-82
2021/08/22 04:34:12;;;;;;;4.53;2.15;;;21.70;99.90;;;;;;4973752;28;20042;-81
2021/08/22 04:36:38;;;;;;;3.95;2.05;;;21.70;99.90;;;;;;4973813;28;20034;-81
2021/08/22 04:39:03;;;;;;;3.97;2.53;;;21.70;99.90;;;;;;4973791;28;20027;-82
2021/08/22 04:41:29;;;;;;;4.05;2.45;;;21.70;99.90;;;;;;4973176;28;20027;-81
2021/08/22 04:43:55;;;;;;;3.60;2.03;;;21.70;99.90;;;;;;4973715;28;20026;-81
2021/08/22 04:46:21;;;;;;;5.13;2.45;;;21.70;99.90;;;;;;4973553;28;20041;-81
2021/08/22 04:48:46;;;;;;;4.85;2.38;;;21.70;99.90;;;;;;4973435;28;20062;-81
2021/08/22 04:51:13;;;;;;;4.22;1.70;;;21.70;99.90;;;;;;4973621;28;20051;-81
2021/08/22 04:53:38;;;;;;;4.35;1.80;;;21.70;99.90;;;;;;4973558;28;20034;-82
2021/08/22 04:56:07;;;;;;;3.53;2.35;;;21.70;99.90;;;;;;4973490;28;20102;-82
2021/08/22 04:58:33;;;;;;;4.20;2.30;;;21.60;99.90;;;;;;4973189;28;20023;-82
2021/08/22 05:00:58;;;;;;;2.58;1.63;;;21.60;99.90;;;;;;4973301;28;20033;-84
2021/08/22 05:03:24;;;;;;;3.53;2.10;;;21.60;99.90;;;;;;4973365;28;20467;-83
2021/08/22 05:05:50;;;;;;;3.47;2.42;;;21.60;99.90;;;;;;4973406;28;20030;-83
2021/08/22 05:08:17;;;;;;;3.55;2.15;;;21.70;99.90;;;;;;4973166;28;20030;-83
2021/08/22 05:10:44;;;;;;;4.72;2.20;;;21.60;99.90;;;;;;4973172;28;20426;-83
2021/08/22 05:13:09;;;;;;;3.88;2.00;;;21.60;99.90;;;;;;4973257;28;20383;-84
2021/08/22 05:15:35;;;;;;;4.60;2.28;;;21.60;99.90;;;;;;4972518;28;20038;-82
2021/08/22 05:18:01;;;;;;;3.35;2.05;;;21.60;99.90;;;;;;4973040;28;20039;-84
2021/08/22 05:20:26;;;;;;;5.15;2.60;;;21.60;99.90;;;;;;4972696;28;20034;-83
2021/08/22 05:22:52;;;;;;;4.30;2.15;;;21.60;99.90;;;;;;4971660;28;20029;-83
2021/08/22 05:25:17;;;;;;;3.63;1.80;;;21.60;99.90;;;;;;4972790;28;20099;-83
2021/08/22 05:27:43;;;;;;;3.58;1.88;;;21.60;99.90;;;;;;4972528;28;20030;-82
2021/08/22 05:30:09;;;;;;;4.65;2.33;;;21.60;99.90;;;;;;4973217;28;20038;-84
2021/08/22 05:32:34;;;;;;;2.70;1.80;;;21.60;99.90;;;;;;4972428;28;20023;-82
2021/08/22 05:35:00;;;;;;;4.65;2.20;;;21.60;99.90;;;;;;4972878;28;20030;-84
2021/08/22 05:37:26;;;;;;;5.65;2.22;;;21.60;99.90;;;;;;4972488;28;20023;-83
2021/08/22 05:39:51;;;;;;;4.65;2.40;;;21.60;99.90;;;;;;4955263;28;20035;-83
2021/08/22 05:42:17;;;;;;;3.30;1.92;;;21.60;99.90;;;;;;4972582;28;20031;-82
2021/08/22 05:44:42;;;;;;;3.78;2.28;;;21.60;99.90;;;;;;4954987;28;20569;-82
2021/08/22 05:47:08;;;;;;;3.78;2.05;;;21.60;99.90;;;;;;4972906;28;20033;-83
2021/08/22 05:49:40;;;;;;;3.17;2.15;;;21.60;99.90;;;;;;4972192;28;20483;-83
2021/08/22 05:52:08;;;;;;;4.00;2.33;;;21.60;99.90;;;;;;4954984;28;20114;-82
2021/08/22 05:54:34;;;;;;;4.05;2.10;;;21.50;99.90;;;;;;4954857;28;20042;-82
2021/08/22 05:56:59;;;;;;;6.72;2.22;;;21.50;99.90;;;;;;4972404;28;20027;-82
2021/08/22 05:59:25;;;;;;;5.22;2.15;;;21.50;99.90;;;;;;4972154;28;20034;-82
2021/08/22 06:01:51;;;;;;;4.03;1.95;;;21.50;99.90;;;;;;4972355;28;20109;-81
2021/08/22 06:04:16;;;;;;;5.20;2.47;;;21.50;99.90;;;;;;4972348;28;20031;-83
2021/08/22 06:06:42;;;;;;;4.20;2.50;;;21.50;99.90;;;;;;4972394;28;20034;-81
2021/08/22 06:09:08;;;;;;;3.10;1.90;;;21.50;99.90;;;;;;4972423;28;20507;-83
2021/08/22 06:11:33;;;;;;;4.03;2.38;;;21.50;99.90;;;;;;4971982;28;20027;-83
2021/08/22 06:13:59;;;;;;;5.15;2.60;;;21.50;99.90;;;;;;4972329;28;20026;-81
2021/08/22 06:16:24;;;;;;;5.03;2.20;;;21.50;99.90;;;;;;4971964;28;20434;-83
2021/08/22 06:18:50;;;;;;;5.15;2.20;;;21.50;99.90;;;;;;4954874;28;20114;-81
2021/08/22 06:21:16;;;;;;;3.50;1.85;;;21.50;99.90;;;;;;4972276;28;20086;-83
2021/08/22 06:23:42;;;;;;;3.42;2.33;;;21.50;99.90;;;;;;4972079;28;20030;-82
2021/08/22 06:26:07;;;;;;;4.18;2.40;;;21.50;99.90;;;;;;4973265;28;20078;-82
2021/08/22 06:28:33;;;;;;;5.35;2.65;;;21.50;99.90;;;;;;4975817;28;20038;-82
2021/08/22 06:30:58;;;;;;;3.33;2.17;;;21.50;99.90;;;;;;4976078;28;20023;-82
2021/08/22 06:33:24;;;;;;;5.07;2.58;;;21.50;99.90;;;;;;4975821;28;20464;-82
2021/08/22 06:35:50;;;;;;;6.47;2.80;;;;;;;;;;4975993;28;20019;-81
2021/08/22 06:38:16;;;;;;;5.43;2.45;;;;;;;;;;4975868;28;20026;-80
2021/08/22 06:40:42;;;;;;;3.20;2.20;;;;;;;;;;4975969;28;20466;-80
2021/08/22 06:43:08;;;;;;;5.00;1.98;;;;;;;;;;4974332;28;20096;-81
2021/08/22 06:45:34;;;;;;;3.78;2.15;;;;;;;;;;4956783;28;20398;-80
2021/08/22 06:48:00;;;;;;;5.35;2.58;;;21.50;99.90;;;;;;4974315;28;20034;-80
2021/08/22 06:50:26;;;;;;;4.43;2.58;;;;;;;;;;4974214;28;20022;-81
2021/08/22 06:52:52;;;;;;;4.97;2.75;;;;;;;;;;4957030;28;20039;-80
2021/08/22 06:55:18;;;;;;;4.25;2.30;;;;;;;;;;4957041;28;20022;-81
2021/08/22 06:57:44;;;;;;;6.45;2.25;;;21.50;99.90;;;;;;4974142;28;20023;-81
2021/08/22 07:00:10;;;;;;;4.70;2.20;;;21.40;99.90;;;;;;4974411;28;20023;-80
2021/08/22 07:02:36;;;;;;;5.70;2.42;;;21.40;99.90;;;;;;4973819;28;20031;-81
2021/08/22 07:05:03;;;;;;;4.35;2.30;;;21.40;99.90;;;;;;4973799;28;20038;-80
2021/08/22 07:07:29;;;;;;;5.28;2.38;;;;;;;;;;4972575;28;20027;-81
2021/08/22 07:09:55;;;;;;;6.65;2.75;;;;;;;;;;4956784;28;20034;-80
2021/08/22 07:12:21;;;;;;;3.78;2.25;;;;;;;;;;4956775;28;20390;-80
2021/08/22 07:14:47;;;;;;;7.22;2.85;;;21.40;99.90;;;;;;4974245;28;20097;-81
2021/08/22 07:17:15;;;;;;;5.43;2.63;;;21.40;99.90;;;;;;4974400;28;20106;-82
2021/08/22 07:19:41;;;;;;;5.53;2.50;;;21.40;99.90;;;;;;4956726;28;20035;-81
2021/08/22 07:22:06;;;;;;;6.18;2.30;;;21.40;99.90;;;;;;4973982;28;20110;-80
2021/08/22 07:24:32;;;;;;;4.53;2.35;;;21.40;99.90;;;;;;4973875;28;20427;-81
2021/08/22 07:26:58;;;;;;;5.20;2.22;;;21.40;99.90;;;;;;4973962;28;20467;-84
2021/08/22 07:29:23;;;;;;;5.05;2.40;;;21.40;99.90;;;;;;4967010;28;20051;-81
2021/08/22 07:31:49;;;;;;;5.00;2.28;;;21.40;99.90;;;;;;4970342;28;20035;-80
2021/08/22 07:34:14;;;;;;;4.70;2.40;;;21.40;99.90;;;;;;4973511;28;20073;-80
2021/08/22 07:36:40;;;;;;;5.72;2.38;;;21.40;99.90;;;;;;4971738;28;20031;-78
2021/08/22 07:39:06;;;;;;;5.95;2.13;;;21.50;99.90;;;;;;4971817;28;20031;-81
2021/08/22 07:41:32;;;;;;;5.18;2.40;;;21.40;99.90;;;;;;4934525;28;1104049;-85
2021/08/22 07:43:57;;;;;;;5.00;2.20;;;21.50;99.90;;;;;;4975192;28;20038;-82
2021/08/22 07:46:23;;;;;;;6.93;3.30;;;21.50;99.90;;;;;;4974543;28;20067;-82
2021/08/22 07:48:49;;;;;;;7.57;2.97;;;21.50;99.90;;;;;;4974800;28;20045;-79
2021/08/22 07:51:14;;;;;;;5.38;2.80;;;21.50;99.90;;;;;;4974670;28;20037;-80
2021/08/22 07:53:40;;;;;;;7.80;2.80;;;21.50;99.90;;;;;;4974195;28;20030;-81
2021/08/22 07:56:06;;;;;;;7.65;3.05;;;;;;;;;;4974433;28;20039;-81
2021/08/22 07:58:32;;;;;;;9.35;2.80;;;21.50;99.90;;;;;;4972861;28;20031;-77
2021/08/22 08:00:58;;;;;;;7.78;2.72;;;21.50;99.90;;;;;;4973580;28;20062;-80
2021/08/22 08:03:23;;;;;;;7.00;2.95;;;21.50;99.90;;;;;;4973180;28;20031;-81
2021/08/22 08:05:49;;;;;;;7.78;2.83;;;21.50;99.90;;;;;;4973522;28;20042;-79
2021/08/22 08:08:14;;;;;;;6.75;3.00;;;21.50;99.90;;;;;;4974039;28;20033;-79
2021/08/22 08:10:40;;;;;;;7.00;2.35;;;;;;;;;;4973513;28;20439;-77
2021/08/22 08:13:06;;;;;;;6.53;2.72;;;;;;;;;;4974059;28;20494;-78
2021/08/22 08:15:32;;;;;;;6.38;2.55;;;;;;;;;;4973264;28;20034;-78
2021/08/22 08:17:58;;;;;;;10.25;3.63;;;;;;;;;;4974189;28;20483;-77
2021/08/22 08:20:24;;;;;;;5.80;2.55;;;;;;;;;;4973282;28;20027;-77
2021/08/22 08:22:50;;;;;;;7.18;2.53;;;;;;;;;;4954783;29;20031;-79
2021/08/22 08:25:16;;;;;;;7.43;2.97;;;;;;;;;;4955141;29;20392;-79
2021/08/22 08:27:43;;;;;;;6.13;2.45;;;;;;;;;;4954688;29;20135;-80
2021/08/22 08:30:09;;;;;;;6.40;2.60;;;;;;;;;;4964436;28;20495;-77
2021/08/22 08:32:37;;;;;;;5.95;2.63;;;;;;;;;;4962718;28;20109;-77
2021/08/22 08:35:04;;;;;;;4.82;1.92;;;;;;;;;;4965081;28;20490;-78
2021/08/22 08:37:30;;;;;;;7.82;2.80;;;;;;;;;;4962221;28;20031;-76
2021/08/22 08:39:56;;;;;;;6.30;2.55;;;;;;;;;;4960445;28;20031;-76
2021/08/22 08:42:32;;;;;;;7.32;2.28;;;;;;;;;;4962083;28;20392;-76
2021/08/22 08:44:58;;;;;;;6.63;2.28;;;;;;;;;;4971493;28;20023;-77
2021/08/22 08:47:24;;;;;;;6.57;2.35;;;;;;;;;;4966714;28;20031;-76
2021/08/22 08:50:02;;;;;;;6.78;2.40;;;;;;;;;;4960928;28;20038;-77
2021/08/22 08:52:40;;;;;;;8.15;2.60;;;;;;;;;;4962610;28;20019;-77
2021/08/22 08:55:16;;;;;;;5.28;1.90;;;;;;;;;;4962647;28;20377;-77
2021/08/22 08:57:42;;;;;;;5.03;2.08;;;;;;;;;;4961506;28;20110;-76
2021/08/22 09:00:10;;;;;;;6.18;2.65;;;;;;;;;;4960699;28;20114;-77
2021/08/22 09:02:36;;;;;;;6.03;1.95;;;;;;;;;;4961724;28;20026;-77
2021/08/22 09:05:08;;;;;;;6.43;2.50;;;;;;;;;;4959423;28;20027;-78
2021/08/22 09:07:53;;;;;;;4.57;1.85;;;;;;;;;;4952584;28;20030;-78
2021/08/22 09:10:19;;;;;;;6.03;1.98;;;;;;;;;;4972449;28;20039;-78
2021/08/22 09:12:57;;;;;;;5.68;2.10;;;;;;;;;;4975200;28;20034;-76
2021/08/22 09:15:44;;;;;;;4.35;1.70;;;;;;;;;;4961894;28;20050;-79
2021/08/22 09:18:29;;;;;;;5.18;1.70;;;;;;;;;;4965033;28;20031;-78
2021/08/22 09:21:24;;;;;;;7.00;2.13;;;;;;;;;;4964678;28;20033;-79
2021/08/22 09:24:22;;;;;;;8.20;2.35;;;;;;;;;;4952902;28;20047;-76
2021/08/22 09:27:07;;;;;;;8.77;2.75;;;;;;;;;;4965918;28;20098;-76
2021/08/22 09:29:32;;;;;;;5.55;2.70;;;;;;;;;;4958515;28;20043;-77
2021/08/22 09:32:17;;;;;;;8.32;3.00;;;;;;;;;;4961118;28;20496;-76
2021/08/22 09:35:01;;;;;;;11.45;3.00;;;;;;;;;;4965119;28;20031;-76
2021/08/22 09:37:30;;;;;;;10.85;2.58;;;;;;;;;;4962489;28;20019;-78
2021/08/22 09:40:15;;;;;;;11.35;2.13;;;;;;;;;;4962575;28;20422;-78
2021/08/22 09:42:53;;;;;;;8.98;2.22;;;;;;;;;;4964950;28;20054;-79
2021/08/22 09:45:38;;;;;;;5.63;2.60;;;;;;;;;;4961012;28;20024;-76
2021/08/22 09:48:23;;;;;;;7.05;2.53;;;;;;;;;;4964624;28;20031;-75
2021/08/22 09:51:08;;;;;;;6.80;2.40;;;;;;;;;;4970628;28;20026;-77
2021/08/22 09:53:40;;;;;;;7.82;2.45;;;;;;;;;;4959848;28;20032;-76
2021/08/22 09:56:06;;;;;;;4.93;2.30;;;;;;;;;;4959994;28;20078;-78
2021/08/22 09:58:44;;;;;;;3.92;1.60;;;;;;;;;;4962679;28;20035;-76
2021/08/22 10:01:33;;;;;;;8.68;2.17;;;;;;;;;;4964270;28;20398;-76
2021/08/22 10:04:25;;;;;;;4.30;2.03;;;;;;;;;;4960843;28;20534;-78
2021/08/22 10:06:51;;;;;;;4.97;1.50;;;;;;;;;;4958325;28;20050;-76
2021/08/22 10:09:17;;;;;;;4.40;1.60;;;;;;;;;;4958146;28;20039;-76
2021/08/22 10:12:02;;;;;;;3.95;1.33;;;;;;;;;;4957832;28;20031;-77
2021/08/22 10:14:29;;;;;;;7.00;1.83;;;;;;;;;;4965041;28;20151;-77
2021/08/22 10:16:58;;;;;;;3.80;1.13;;;;;;;;;;4958615;28;20376;-76
2021/08/22 10:19:28;;;;;;;3.55;1.48;;;;;;;;;;4972079;28;20030;-77
2021/08/22 10:22:09;;;;;;;5.75;1.40;;;;;;;;;;4971813;28;20026;-78
2021/08/22 10:24:38;;;;;;;8.68;1.80;;;;;;;;;;4971979;28;20030;-78
2021/08/22 10:27:05;;;;;;;4.85;1.30;;;;;;;;;;4961682;28;20027;-77
2021/08/22 10:29:32;;;;;;;5.47;1.30;;;;;;;;;;4971791;28;20039;-79
2021/08/22 10:32:05;;;;;;;9.48;1.30;;;;;;;;;;4967602;28;20023;-80
2021/08/22 10:34:34;;;;;;;5.03;1.23;;;;;;;;;;4966653;28;20403;-77
2021/08/22 10:37:00;;;;;;;4.15;1.00;;;;;;;;;;4967891;28;20030;-78
2021/08/22 10:39:30;;;;;;;4.05;1.17;;;;;;;;;;4970964;28;20030;-78
2021/08/22 10:41:59;;;;;;;4.28;2.13;;;;;;;;;;4969339;28;20388;-77
2021/08/22 10:44:34;;;;;;;3.05;1.13;;;;;;;;;;4970915;28;20034;-78
2021/08/22 10:47:04;;;;;;;3.88;1.48;;;;;;;;;;4971034;28;20102;-84
2021/08/22 10:49:54;;;;;;;5.28;1.13;;;22.70;99.90;;;;;;4970381;28;20534;-84
2021/08/22 10:52:32;;;;;;;8.35;1.23;;;22.70;99.90;;;;;;4971418;28;20022;-80
2021/08/22 10:55:13;;;;;;;9.73;1.40;;;22.60;99.90;;;;;;4985484;28;20029;-80
2021/08/22 11:00:24;;;;;;;7.25;1.33;;;22.70;99.90;;;;;;4971074;28;20031;-78
2021/08/22 11:03:03;;;;;;;4.43;1.23;;;22.70;99.90;;;;;;4967250;28;20407;-82
2021/08/22 11:05:31;;;;;;;7.55;1.80;;;22.50;99.70;;;;;;4954898;28;20023;-85
2021/08/22 11:08:11;;;;;;;2.55;1.20;;;22.50;99.40;;;;;;4971064;28;20034;-82
2021/08/22 11:10:37;;;;;;;2.83;0.85;;;22.50;99.00;;;;;;4971075;28;20062;-82
2021/08/22 11:13:03;;;;;;;11.02;1.30;;;22.50;99.10;;;;;;4973468;28;20491;-86
2021/08/22 11:15:30;;;;;;;2.60;0.77;;;22.50;99.40;;;;;;4974462;28;20045;-85
2021/08/22 11:18:01;;;;;;;2.83;1.08;;;22.50;99.30;;;;;;4973954;28;20113;-79
2021/08/22 11:20:29;;;;;;;4.40;0.95;;;22.50;99.10;;;;;;4967997;28;20027;-79
2021/08/22 11:23:16;;;;;;;9.52;1.83;;;22.40;98.60;;;;;;4975461;28;20023;-79
2021/08/22 11:25:42;;;;;;;7.50;1.60;;;22.40;98.60;;;;;;4974157;28;20054;-81
2021/08/22 11:28:10;;;;;;;2.08;1.10;;;22.40;99.00;;;;;;4974471;28;20041;-80
2021/08/22 11:30:38;;;;;;;2.63;1.40;;;22.40;98.90;;;;;;4974174;28;20027;-82
2021/08/22 11:33:06;;;;;;;5.50;1.40;;;22.40;99.00;;;;;;4974360;28;20022;-78
2021/08/22 11:35:35;;;;;;;2.17;0.82;;;22.30;99.10;;;;;;4959875;28;20114;-81
2021/08/22 11:38:01;;;;;;;2.60;1.00;;;22.40;99.00;;;;;;4974224;28;20415;-84
2021/08/22 11:40:28;;;;;;;9.30;1.15;;;22.30;98.90;;;;;;4973675;28;20038;-82
2021/08/22 11:42:57;;;;;;;2.80;0.88;;;22.40;98.80;;;;;;4973716;28;20031;-79
2021/08/22 11:45:28;;;;;;;2.28;1.30;;;22.30;98.50;;;;;;4973558;28;20026;-81
2021/08/22 11:47:55;;;;;;;7.75;1.30;;;22.30;98.50;;;;;;4974114;28;20023;-80
2021/08/22 11:50:28;;;;;;;7.18;1.40;;;22.40;98.80;;;;;;4973114;28;20046;-80
2021/08/22 11:52:57;;;;;;;6.20;1.38;;;22.40;99.00;;;;;;4972400;28;20030;-81
2021/08/22 11:55:32;;;;;;;8.93;2.40;;;22.40;99.00;;;;;;4972800;28;20080;-84
2021/08/22 11:58:12;;;;;;;8.85;3.15;;;22.40;98.60;;;;;;4972849;28;20030;-80
2021/08/22 12:00:40;;;;;;;6.25;3.53;;;22.40;98.90;;;;;;4984758;28;20066;-82
2021/08/22 12:03:17;;;;;;;11.55;3.40;;;22.50;99.10;;;;;;4993293;28;20065;-80
2021/08/22 12:06:10;;;;;;;6.93;3.38;;;22.50;99.10;;;;;;4979080;28;20432;-82
2021/08/22 12:08:36;;;;;;;5.13;2.45;;;22.50;99.20;;;;;;4973772;28;20053;-83
2021/08/22 12:11:11;;;;;;;9.57;3.63;;;22.60;99.30;;;;;;4973931;28;20058;-80
2021/08/22 12:13:38;;;;;;;;;;;22.60;99.30;;;;;;4973842;28;20018;-81
2021/08/22 12:16:21;;;;;;;7.05;2.75;;;22.60;99.30;;;;;;4974046;28;19906;-84
2021/08/22 12:18:46;;;;;;;7.72;3.67;;;22.60;99.40;;;;;;4978162;28;20031;-86
2021/08/22 12:21:14;;;;;;;7.55;3.17;;;22.70;99.40;;;;;;4973055;28;20097;-82
2021/08/22 12:23:41;;;;;;;13.52;2.70;;;22.70;99.60;;;;;;4971999;28;20053;-80
2021/08/22 12:26:20;;;;;;;12.65;2.50;;;22.70;99.70;;;;;;4973301;28;20033;-80
2021/08/22 12:28:46;;;;;;;11.27;2.38;;;22.80;99.70;;;;;;4972915;28;20525;-80
2021/08/22 12:31:15;;;;;;;10.55;2.60;;;22.80;99.80;;;;;;4973246;28;20037;-79
2021/08/22 12:33:43;;;;;;;7.85;2.22;;;22.80;99.90;;;;;;4971798;28;20046;-80
2021/08/22 12:36:17;;;;;;;6.75;2.35;;;22.80;99.80;;;;;;4972638;28;20121;-81
2021/08/22 12:39:10;;;;;;;6.55;1.80;;;22.80;99.60;;;;;;4972862;28;20483;-80
2021/08/22 12:41:46;;;;;;;5.60;1.83;;;22.90;99.80;;;;;;4970288;28;20407;-81
2021/08/22 12:44:25;;;;;;;3.88;2.10;;;22.80;99.60;;;;;;4972877;28;20388;-80
2021/08/22 12:46:53;;;;;;;6.05;1.92;;;22.90;99.70;;;;;;4972968;28;20033;-79
2021/08/22 12:49:18;;;;;;;7.20;2.53;;;22.90;99.60;;;;;;4972851;28;20034;-79
2021/08/22 12:51:50;;;;;;;11.73;2.03;;;22.90;99.70;;;;;;4972108;28;20078;-82
2021/08/22 12:54:16;;;;;;;4.00;1.77;;;22.90;99.80;;;;;;4973103;28;20054;-88
2021/08/22 12:56:42;;;;;;;5.65;1.67;;;22.90;99.70;;;;;;4986451;28;20031;-87
2021/08/22 12:59:08;;;;;;;4.93;1.42;;;22.90;99.40;;;;;;4992402;28;20023;-86
2021/08/22 13:01:33;;;;;;;6.05;1.58;;;22.90;99.30;;;;;;4973297;28;20031;-82
2021/08/22 13:03:59;;;;;;;6.55;1.70;;;22.90;99.30;;;;;;4980708;28;20057;-90
2021/08/22 13:06:25;;;;;;;2.83;1.60;;;22.90;99.20;;;;;;4978610;28;20118;-85
2021/08/22 13:08:51;;;;;;;2.13;1.35;;;23.00;99.00;;;;;;4972392;28;20031;-82
2021/08/22 13:11:19;;;;;;;4.50;1.45;;;23.00;99.10;;;;;;4973638;28;20454;-84
2021/08/22 13:13:45;;;;;;;4.65;1.40;;;23.00;99.20;;;;;;4987186;28;20049;-77
2021/08/22 13:16:11;;;;;;;6.45;1.52;;;23.00;99.20;;;;;;4980992;28;20409;-86
2021/08/22 13:18:37;;;;;;;5.80;1.65;;;23.10;99.20;;;;;;4980600;28;20105;-85
2021/08/22 13:21:06;;;;;;;10.48;1.90;;;23.20;99.20;;;;;;4972095;28;20114;-83